Time;durP1;ratioP1;P1;durP2;ratioP2;P2;SDS_P1;SDS_P2;PMS_P1;PMS_P2;Temp;Humidity;BMP_temperature;BMP_pressure;BME280_temperature;BME280_humidity;BME280_pressure;Samples;Min_cycle;Max_cycle;Signal;HPM_P1;HPM_P2
2022/09/28 00:00:01;;;;;;;;;;;;;;;14.34;62.33;93967.91;5069240;28;20001;-71
2022/09/28 00:02:26;;;;;;;;;;;;;;;14.36;62.31;93957.63;5068635;28;20013;-70
2022/09/28 00:04:52;;;;;;;;;;;;;;;14.35;61.61;93964.09;5069640;28;20024;-70
2022/09/28 00:07:17;;;;;;;;;;;;;;;14.35;62.05;93958.75;5069741;28;20005;-70
2022/09/28 00:09:42;;;;;;;;;;;;;;;14.37;61.75;93956.50;5069249;28;20400;-70
2022/09/28 00:12:07;;;;;;;;;;;;;;;14.34;61.65;93949.19;5067720;28;20013;-70
2022/09/28 00:14:33;;;;;;;;;;;;;;;14.31;61.54;93941.88;5068400;28;20052;-70
2022/09/28 00:16:58;;;;;;;;;;;;;;;14.36;61.56;93932.78;5068333;28;20669;-70
2022/09/28 00:19:23;;;;;;;;;;;;;;;14.36;61.11;93938.13;5069234;28;20150;-70
2022/09/28 00:21:48;;;;;;;;;;;;;;;14.40;61.24;93929.03;5068673;28;20013;-70
2022/09/28 00:24:14;;;;;;;;;;;;;;;14.44;61.11;93923.75;5069380;28;20013;-70
2022/09/28 00:26:39;;;;;;;;;;;;;;;14.43;60.69;93912.25;5068406;28;20497;-70
2022/09/28 00:29:05;;;;;;;;;;;;;;;14.48;60.45;93911.22;5069103;28;20055;-70
2022/09/28 00:31:31;;;;;;;;;;;;;;;14.49;60.66;93902.06;5068634;28;20017;-71
2022/09/28 00:33:59;;;;;;;;;;;;;;;14.54;60.38;93893.75;5067739;28;20385;-70
2022/09/28 00:36:25;;;;;;;;;;;;;;;14.50;60.05;93888.34;5069395;28;20011;-69
2022/09/28 00:38:51;;;;;;;;;;;;;;;14.50;59.76;93882.22;5067876;28;20017;-70
2022/09/28 00:41:16;;;;;;;;;;;;;;;14.48;59.80;93881.78;5067170;28;20010;-70
2022/09/28 00:43:41;;;;;;;;;;;;;;;14.48;59.54;93882.56;5064675;28;20028;-71
2022/09/28 00:46:16;;;;;;;;;;;;;;;14.46;59.78;93884.03;5064226;28;20478;-70
2022/09/28 00:48:48;;;;;;;;;;;;;;;14.41;59.33;93878.97;5067081;28;20437;-70
2022/09/28 00:51:13;;;;;;;;;;;;;;;14.37;59.08;93876.22;5055420;28;20017;-70
2022/09/28 00:53:42;;;;;;;;;;;;;;;14.35;59.24;93873.16;5058978;28;20009;-70
2022/09/28 00:56:10;;;;;;;;;;;;;;;14.32;58.75;93876.53;5049238;28;20139;-69
2022/09/28 00:58:38;;;;;;;;;;;;;;;14.25;58.89;93873.75;5065985;28;20437;-70
2022/09/28 01:01:03;;;;;;;;;;;;;;;14.13;58.89;93872.03;5071501;28;20018;-70
2022/09/28 01:03:29;;;;;;;;;;;;;;;13.97;59.19;93864.13;5072489;28;20021;-70
2022/09/28 01:05:56;;;;;;;;;;;;;;;13.82;59.59;93858.88;5071807;28;20045;-71
2022/09/28 01:08:23;;;;;;;;;;;;;;;13.69;59.70;93858.28;5071912;28;20063;-70
2022/09/28 01:10:49;;;;;;;;;;;;;;;13.46;60.14;93853.69;5072433;28;20005;-69
2022/09/28 01:13:16;;;;;;;;;;;;;;;13.33;60.48;93849.59;5071490;28;20075;-70
2022/09/28 01:15:47;;;;;;;;;;;;;;;13.26;60.84;93850.25;5072412;28;20001;-71
2022/09/28 01:18:27;;;;;;;;;;;;;;;13.27;60.81;93840.31;5071069;28;20021;-71
2022/09/28 01:20:55;;;;;;;;;;;;;;;12.51;61.83;93836.41;5072300;28;20001;-70
2022/09/28 01:23:31;;;;;;;;;;;;;;;12.87;61.52;93830.72;5071432;28;20456;-70
2022/09/28 01:26:15;;;;;;;;;;;;;;;12.87;61.59;93836.06;5072222;28;20009;-70
2022/09/28 01:28:42;;;;;;;;;;;;;;;12.79;61.95;93826.34;5070957;28;20067;-70
2022/09/28 01:31:10;;;;;;;;;;;;;;;12.84;61.94;93826.06;5071238;28;20066;-70
2022/09/28 01:33:47;;;;;;;;;;;;;;;12.85;61.93;93814.31;5070856;28;20013;-70
2022/09/28 01:36:14;;;;;;;;;;;;;;;12.94;62.10;93812.19;5071258;28;20068;-70
2022/09/28 01:38:45;;;;;;;;;;;;;;;13.11;62.10;93802.22;5071520;28;20005;-70
2022/09/28 01:41:11;;;;;;;;;;;;;;;13.27;61.40;93793.03;5071079;28;20112;-70
2022/09/28 01:43:41;;;;;;;;;;;;;;;13.38;61.06;93784.44;5069269;28;20138;-70
2022/09/28 01:46:11;;;;;;;;;;;;;;;13.47;60.47;93782.31;5072027;28;20012;-71
2022/09/28 01:48:46;;;;;;;;;;;;;;;13.45;60.31;93774.66;5070133;28;20014;-70
2022/09/28 01:51:22;;;;;;;;;;;;;;;13.60;60.15;93764.22;5071090;28;20009;-70
2022/09/28 01:53:50;;;;;;;;;;;;;;;13.70;59.54;93755.59;5066755;28;20009;-70
2022/09/28 01:56:37;;;;;;;;;;;;;;;13.69;59.36;93756.75;5068740;28;20013;-70
2022/09/28 01:59:06;;;;;;;;;;;;;;;13.70;59.13;93748.34;5061788;28;20020;-70
2022/09/28 02:01:45;;;;;;;;;;;;;;;13.74;58.90;93743.09;5070257;28;20366;-70
2022/09/28 02:04:13;;;;;;;;;;;;;;;13.73;59.19;93738.88;5070143;28;20070;-70
2022/09/28 02:06:44;;;;;;;;;;;;;;;13.80;59.20;93725.59;5071276;28;20005;-70
2022/09/28 02:09:12;;;;;;;;;;;;;;;13.90;58.50;93721.56;5068927;28;20056;-70
2022/09/28 02:11:42;;;;;;;;;;;;;;;13.89;58.96;93715.44;5070100;28;20104;-70
2022/09/28 02:14:09;;;;;;;;;;;;;;;13.92;58.83;93713.94;5070413;28;20067;-70
2022/09/28 02:16:41;;;;;;;;;;;;;;;13.92;58.77;93712.06;5068868;28;20017;-70
2022/09/28 02:19:12;;;;;;;;;;;;;;;13.91;58.82;93702.47;5068854;28;20009;-70
2022/09/28 02:21:49;;;;;;;;;;;;;;;13.94;58.77;93698.34;5071248;28;20436;-70
2022/09/28 02:24:17;;;;;;;;;;;;;;;13.97;58.92;93693.06;5068739;28;20070;-69
2022/09/28 02:26:44;;;;;;;;;;;;;;;13.95;58.56;93695.28;5068529;28;20103;-71
2022/09/28 02:29:10;;;;;;;;;;;;;;;13.95;58.33;93687.28;5069791;28;20009;-70
2022/09/28 02:31:35;;;;;;;;;;;;;;;13.90;58.58;93684.91;5071451;28;20457;-70
2022/09/28 02:34:00;;;;;;;;;;;;;;;13.77;58.68;93681.69;5071464;28;20009;-71
2022/09/28 02:36:26;;;;;;;;;;;;;;;13.62;58.35;93677.25;5071145;28;20048;-70
2022/09/28 02:38:51;;;;;;;;;;;;;;;13.47;59.03;93670.13;5069724;28;20020;-70
2022/09/28 02:41:23;;;;;;;;;;;;;;;13.35;59.19;93667.63;5070103;28;20107;-70
2022/09/28 02:43:54;;;;;;;;;;;;;;;13.23;59.39;93666.69;5069952;28;20020;-71
2022/09/28 02:46:35;;;;;;;;;;;;;;;13.12;60.01;93670.28;5070802;28;20012;-70
2022/09/28 02:49:14;;;;;;;;;;;;;;;13.03;60.04;93662.50;5070425;28;20013;-70
2022/09/28 02:51:43;;;;;;;;;;;;;;;12.98;60.21;93644.09;5069796;28;20075;-70
2022/09/28 02:54:22;;;;;;;;;;;;;;;12.79;60.37;93650.25;5069290;28;20016;-70
2022/09/28 02:57:03;;;;;;;;;;;;;;;12.72;60.66;93642.13;5068785;28;20496;-70
2022/09/28 02:59:38;;;;;;;;;;;;;;;12.18;61.28;93650.97;5067939;28;20059;-70
2022/09/28 03:02:12;;;;;;;;;;;;;;;12.63;60.34;93629.00;5065952;28;20051;-70
2022/09/28 03:04:50;;;;;;;;;;;;;;;12.71;60.48;93625.34;5069107;28;20102;-69
2022/09/28 03:07:21;;;;;;;;;;;;;;;12.84;60.21;93622.50;5067007;28;20009;-70
2022/09/28 03:09:57;;;;;;;;;;;;;;;12.91;59.87;93622.66;5069830;28;20043;-70
2022/09/28 03:12:23;;;;;;;;;;;;;;;12.95;59.68;93621.59;5070329;28;20050;-70
2022/09/28 03:15:04;;;;;;;;;;;;;;;13.00;59.48;93620.53;5069660;28;20012;-71
2022/09/28 03:17:29;;;;;;;;;;;;;;;13.01;59.37;93611.38;5070389;28;20502;-71
2022/09/28 03:19:55;;;;;;;;;;;;;;;13.00;59.14;93615.19;5069757;28;20045;-70
2022/09/28 03:22:20;;;;;;;;;;;;;;;12.99;59.30;93614.38;5068305;28;20104;-70
2022/09/28 03:24:45;;;;;;;;;;;;;;;12.97;59.48;93623.88;5067704;28;20024;-70
2022/09/28 03:27:10;;;;;;;;;;;;;;;12.93;59.91;93623.81;5068853;28;20876;-70
2022/09/28 03:29:37;;;;;;;;;;;;;;;12.94;59.46;93616.56;5067662;28;20045;-70
2022/09/28 03:32:03;;;;;;;;;;;;;;;12.96;59.53;93619.69;5069270;28;20020;-69
2022/09/28 03:34:28;;;;;;;;;;;;;;;12.97;59.48;93615.88;5069896;28;20009;-70
2022/09/28 03:36:53;;;;;;;;;;;;;;;12.98;59.61;93623.53;5067937;28;20100;-70
2022/09/28 03:39:18;;;;;;;;;;;;;;;13.03;59.71;93619.78;5069746;28;20005;-70
2022/09/28 03:41:43;;;;;;;;;;;;;;;13.13;59.74;93610.41;5069984;28;20016;-70
2022/09/28 03:44:09;;;;;;;;;;;;;;;13.22;59.57;93611.00;5068545;28;20028;-70
2022/09/28 03:46:34;;;;;;;;;;;;;;;13.22;59.24;93605.66;5066722;28;20057;-70
2022/09/28 03:48:59;;;;;;;;;;;;;;;13.36;59.41;93610.41;5048413;28;20013;-70
2022/09/28 03:51:25;;;;;;;;;;;;;;;13.47;59.21;93600.69;5048445;28;20010;-70
2022/09/28 03:53:50;;;;;;;;;;;;;;;13.57;59.49;93600.06;5048515;28;20219;-69
2022/09/28 03:56:16;;;;;;;;;;;;;;;13.63;59.01;93606.66;5063872;28;20017;-70
2022/09/28 03:58:41;;;;;;;;;;;;;;;13.69;58.74;93601.75;5068084;28;20017;-70
2022/09/28 04:01:08;;;;;;;;;;;;;;;13.74;58.54;93593.44;5067490;28;20009;-70
2022/09/28 04:03:33;;;;;;;;;;;;;;;13.78;58.37;93584.34;5068915;28;20048;-70
2022/09/28 04:05:58;;;;;;;;;;;;;;;13.85;58.54;93588.22;5069503;28;20060;-70
2022/09/28 04:08:23;;;;;;;;;;;;;;;13.88;58.31;93582.94;5067806;28;20108;-70
2022/09/28 04:10:49;;;;;;;;;;;;;;;13.92;58.41;93577.63;5057075;28;20017;-70
2022/09/28 04:13:14;;;;;;;;;;;;;;;13.97;58.34;93572.75;5069365;28;20519;-73
2022/09/28 04:15:39;;;;;;;;;;;;;;;13.86;57.59;93574.50;5067308;28;20013;-70
2022/09/28 04:18:09;;;;;;;;;;;;;;;13.94;57.70;93581.50;5069636;28;20358;-70
2022/09/28 04:20:34;;;;;;;;;;;;;;;14.01;57.62;93572.78;5069298;28;20710;-71
2022/09/28 04:23:00;;;;;;;;;;;;;;;14.04;57.04;93588.09;5068936;28;20017;-70
2022/09/28 04:25:25;;;;;;;;;;;;;;;14.09;57.51;93587.03;5069568;28;20103;-71
2022/09/28 04:30:34;;;;;;;;;;;;;;;14.11;57.08;93572.13;5068064;28;20067;-70
2022/09/28 04:32:59;;;;;;;;;;;;;;;14.18;57.09;93574.16;5071067;28;20010;-70
2022/09/28 04:35:24;;;;;;;;;;;;;;;14.19;56.79;93578.34;5072141;28;20013;-70
2022/09/28 04:37:49;;;;;;;;;;;;;;;14.13;57.10;93571.78;5073422;28;20536;-70
2022/09/28 04:40:14;;;;;;;;;;;;;;;14.17;57.03;93570.69;5072623;28;20009;-70
2022/09/28 04:42:40;;;;;;;;;;;;;;;14.11;57.13;93566.78;5071429;28;20013;-70
2022/09/28 04:45:05;;;;;;;;;;;;;;;14.11;57.30;93569.47;5071673;28;20014;-70
2022/09/28 04:47:30;;;;;;;;;;;;;;;14.08;57.33;93570.22;5070884;28;20574;-70
2022/09/28 04:49:56;;;;;;;;;;;;;;;14.10;57.08;93577.88;5071214;28;20474;-70
2022/09/28 04:52:21;;;;;;;;;;;;;;;14.12;57.23;93570.22;5071755;28;20013;-70
2022/09/28 04:54:46;;;;;;;;;;;;;;;14.17;56.93;93576.03;5070350;28;20014;-70
2022/09/28 04:57:11;;;;;;;;;;;;;;;14.17;56.94;93575.25;5072916;28;20458;-69
2022/09/28 04:59:36;;;;;;;;;;;;;;;14.14;57.01;93581.34;5071003;28;20009;-70
2022/09/28 05:02:02;;;;;;;;;;;;;;;14.12;56.99;93580.94;5069075;28;20016;-69
2022/09/28 05:04:29;;;;;;;;;;;;;;;14.00;58.14;93593.41;5070766;28;20017;-73
2022/09/28 05:06:54;;;;;;;;;;;;;;;14.08;58.36;93596.19;5069973;28;20035;-74
2022/09/28 05:09:19;;;;;;;;;;;;;;;13.92;58.85;93599.81;5072538;28;20498;-74
2022/09/28 05:11:44;;;;;;;;;;;;;;;13.91;58.89;93602.81;5068960;28;20045;-74
2022/09/28 05:14:10;;;;;;;;;;;;;;;13.89;58.84;93595.16;5071307;28;20449;-75
2022/09/28 05:16:36;;;;;;;;;;;;;;;14.08;58.43;93601.53;5069781;28;20472;-67
2022/09/28 05:19:01;;;;;;;;;;;;;;;14.18;58.35;93590.97;5069869;28;20105;-70
2022/09/28 05:21:28;;;;;;;;;;;;;;;14.19;57.60;93583.72;5070203;28;20107;-69
2022/09/28 05:23:55;;;;;;;;;;;;;;;14.09;57.70;93587.03;5071003;28;20052;-71
2022/09/28 05:26:21;;;;;;;;;;;;;;;14.13;57.78;93572.56;5076685;28;20009;-70
2022/09/28 05:28:46;;;;;;;;;;;;;;;14.20;58.05;93574.53;5071273;28;20013;-70
2022/09/28 05:31:11;;;;;;;;;;;;;;;14.26;58.37;93559.72;5070011;28;20015;-68
2022/09/28 05:33:37;;;;;;;;;;;;;;;14.28;57.89;93552.88;5072562;28;20087;-68
2022/09/28 05:36:02;;;;;;;;;;;;;;;14.21;58.15;93552.00;5056425;28;20014;-69
2022/09/28 05:38:28;;;;;;;;;;;;;;;14.25;58.27;93544.81;5059601;28;20056;-70
2022/09/28 05:40:53;;;;;;;;;;;;;;;14.29;58.28;93548.28;5072487;28;20070;-70
2022/09/28 05:43:18;;;;;;;;;;;;;;;14.36;57.99;93542.25;5072299;28;20108;-68
2022/09/28 05:45:44;;;;;;;;;;;;;;;14.36;57.59;93543.00;5067847;28;20015;-68
2022/09/28 05:48:09;;;;;;;;;;;;;;;14.35;57.50;93552.19;5070503;28;20017;-67
2022/09/28 05:50:35;;;;;;;;;;;;;;;14.36;57.99;93534.22;5072013;28;20035;-70
2022/09/28 05:53:01;;;;;;;;;;;;;;;14.02;58.36;93545.69;5069402;28;20389;-66
2022/09/28 05:55:26;;;;;;;;;;;;;;;14.07;59.71;93520.53;5071447;28;20142;-65
2022/09/28 05:57:51;;;;;;;;;;;;;;;14.23;58.72;93528.38;5070879;28;20870;-68
2022/09/28 06:00:17;;;;;;;;;;;;;;;14.22;58.37;93522.22;5070316;28;20013;-67
2022/09/28 06:02:42;;;;;;;;;;;;;;;14.18;58.74;93509.97;5070936;28;20100;-69
2022/09/28 06:05:08;;;;;;;;;;;;;;;14.00;58.65;93510.53;5072120;28;20109;-69
2022/09/28 06:07:33;;;;;;;;;;;;;;;13.93;59.51;93502.44;5071510;28;20044;-68
2022/09/28 06:09:58;;;;;;;;;;;;;;;13.37;61.30;93503.25;5068729;28;20059;-69
2022/09/28 06:12:24;;;;;;;;;;;;;;;13.69;61.04;93497.56;5071142;28;20059;-69
2022/09/28 06:14:49;;;;;;;;;;;;;;;13.78;60.78;93498.06;5070745;28;20016;-68
2022/09/28 06:17:15;;;;;;;;;;;;;;;13.21;61.15;93498.09;5070272;28;20013;-69
2022/09/28 06:19:40;;;;;;;;;;;;;;;13.31;61.57;93495.91;5070995;28;20013;-69
2022/09/28 06:22:05;;;;;;;;;;;;;;;13.30;61.73;93489.78;5071377;28;20012;-69
2022/09/28 06:24:30;;;;;;;;;;;;;;;13.58;61.50;93497.44;5068571;28;20028;-71
2022/09/28 06:26:56;;;;;;;;;;;;;;;13.29;61.78;93496.28;5065148;28;20020;-69
2022/09/28 06:29:21;;;;;;;;;;;;;;;13.60;61.27;93497.81;5068568;28;20017;-69
2022/09/28 06:31:46;;;;;;;;;;;;;;;13.44;61.63;93503.34;5061068;28;20009;-69
2022/09/28 06:34:12;;;;;;;;;;;;;;;13.85;61.02;93506.16;5070001;28;20159;-70
2022/09/28 06:36:37;;;;;;;;;;;;;;;14.04;60.37;93494.53;5069765;28;20014;-69
2022/09/28 06:39:02;;;;;;;;;;;;;;;13.99;59.21;93498.31;5068632;28;20501;-70
2022/09/28 06:41:28;;;;;;;;;;;;;;;14.18;59.43;93497.38;5069793;28;20105;-71
2022/09/28 06:43:53;;;;;;;;;;;;;;;14.36;59.20;93499.44;5069561;28;20546;-70
2022/09/28 06:46:19;;;;;;;;;;;;;;;14.48;58.93;93502.63;5068243;28;20100;-69
2022/09/28 06:48:45;;;;;;;;;;;;;;;14.55;57.72;93508.06;5067514;28;20208;-70
2022/09/28 06:51:10;;;;;;;;;;;;;;;14.41;57.93;93502.56;5069375;28;20544;-69
2022/09/28 06:53:36;;;;;;;;;;;;;;;14.39;58.03;93504.06;5074245;28;20020;-70
2022/09/28 06:56:01;;;;;;;;;;;;;;;14.53;58.11;93501.53;5068792;28;20071;-70
2022/09/28 06:58:27;;;;;;;;;;;;;;;14.74;57.65;93503.63;5069401;28;20115;-70
2022/09/28 07:00:57;;;;;;;;;;;;;;;14.54;57.67;93492.41;5070472;28;20049;-71
2022/09/28 07:03:22;;;;;;;;;;;;;;;14.54;57.20;93492.41;5069494;28;20060;-70
2022/09/28 07:05:49;;;;;;;;;;;;;;;14.17;58.83;93495.03;5068987;28;20067;-71
2022/09/28 07:08:14;;;;;;;;;;;;;;;14.28;58.00;93501.28;5068749;28;20677;-70
2022/09/28 07:10:43;;;;;;;;;;;;;;;14.43;58.42;93505.63;5068619;28;20057;-71
2022/09/28 07:13:09;;;;;;;;;;;;;;;14.67;57.90;93503.59;5071505;28;20007;-72
2022/09/28 07:15:35;;;;;;;;;;;;;;;14.87;57.70;93510.25;5068622;28;20074;-71
2022/09/28 07:18:01;;;;;;;;;;;;;;;15.01;57.12;93523.75;5069898;28;20480;-72
2022/09/28 07:20:26;;;;;;;;;;;;;;;14.93;57.18;93516.81;5069871;28;20012;-72
2022/09/28 07:22:55;;;;;;;;;;;;;;;15.07;57.07;93533.00;5069444;28;20568;-73
2022/09/28 07:25:20;;;;;;;;;;;;;;;15.26;57.20;93517.81;5070469;28;20100;-73
2022/09/28 07:27:46;;;;;;;;;;;;;;;15.28;56.78;93518.97;5069228;28;20498;-73
2022/09/28 07:30:11;;;;;;;;;;;;;;;15.38;56.29;93525.56;5070033;28;20012;-73
2022/09/28 07:32:37;;;;;;;;;;;;;;;15.39;56.61;93529.00;5068510;28;20009;-72
2022/09/28 07:35:06;;;;;;;;;;;;;;;15.48;56.13;93532.88;5069218;28;20393;-73
2022/09/28 07:37:32;;;;;;;;;;;;;;;15.58;56.21;93534.88;5070248;28;20143;-73
2022/09/28 07:42:41;;;;;;;;;;;;;;;15.69;55.63;93531.50;5070029;28;20405;-74
2022/09/28 07:45:06;;;;;;;;;;;;;;;15.68;55.53;93533.41;5070094;28;20006;-73
2022/09/28 07:47:31;;;;;;;;;;;;;;;15.44;56.13;93536.69;5069969;28;20028;-73
2022/09/28 07:49:57;;;;;;;;;;;;;;;15.34;56.36;93540.81;5066582;28;20100;-73
2022/09/28 07:52:24;;;;;;;;;;;;;;;15.26;56.10;93542.69;5068692;28;20020;-73
2022/09/28 07:54:51;;;;;;;;;;;;;;;15.34;56.47;93538.16;5069848;28;20012;-73
2022/09/28 07:57:18;;;;;;;;;;;;;;;15.41;56.58;93535.53;5069819;28;20047;-73
2022/09/28 07:59:43;;;;;;;;;;;;;;;15.52;56.55;93547.09;5069538;28;20005;-74
2022/09/28 08:02:09;;;;;;;;;;;;;;;15.60;56.09;93548.66;5067479;28;20031;-73
2022/09/28 08:04:34;;;;;;;;;;;;;;;15.26;56.36;93540.03;5066037;28;20017;-73
2022/09/28 08:07:01;;;;;;;;;;;;;;;15.70;56.14;93538.41;5070239;28;20408;-74
2022/09/28 08:09:27;;;;;;;;;;;;;;;15.60;55.83;93545.19;5072211;28;20021;-73
2022/09/28 08:11:53;;;;;;;;;;;;;;;15.73;55.41;93551.06;5072771;28;20009;-73
2022/09/28 08:14:18;;;;;;;;;;;;;;;15.73;55.79;93556.44;5073278;28;20009;-73
2022/09/28 08:16:44;;;;;;;;;;;;;;;15.92;55.99;93558.84;5073440;28;20366;-73
2022/09/28 08:19:09;;;;;;;;;;;;;;;16.08;55.72;93558.53;5071138;28;20013;-73
2022/09/28 08:21:44;;;;;;;;;;;;;;;16.21;55.81;93556.25;5073713;28;20005;-74
2022/09/28 08:24:09;;;;;;;;;;;;;;;16.27;55.69;93550.13;5073411;28;20016;-73
2022/09/28 08:26:34;;;;;;;;;;;;;;;16.41;55.17;93545.97;5071322;28;20381;-73
2022/09/28 08:29:00;;;;;;;;;;;;;;;16.51;54.77;93551.38;5073260;28;20759;-73
2022/09/28 08:31:25;;;;;;;;;;;;;;;16.53;54.79;93557.16;5073534;28;20492;-73
2022/09/28 08:33:52;;;;;;;;;;;;;;;16.48;54.47;93551.34;5070834;28;20017;-73
2022/09/28 08:36:18;;;;;;;;;;;;;;;16.31;55.07;93552.84;5073097;28;20028;-73
2022/09/28 08:38:43;;;;;;;;;;;;;;;15.91;55.44;93559.19;5072744;28;20523;-73
2022/09/28 08:41:08;;;;;;;;;;;;;;;16.28;55.63;93567.03;5072010;28;20017;-73
2022/09/28 08:43:43;;;;;;;;;;;;;;;16.09;55.51;93568.88;5067729;28;20101;-73
2022/09/28 08:46:09;;;;;;;;;;;;;;;16.09;56.13;93563.50;5072541;28;20520;-72
2022/09/28 08:48:43;;;;;;;;;;;;;;;16.15;55.59;93569.25;5070248;28;20052;-74
2022/09/28 08:51:29;;;;;;;;;;;;;;;16.29;55.55;93577.38;5073109;28;20006;-73
2022/09/28 08:54:13;;;;;;;;;;;;;;;16.38;55.70;93577.81;5073064;28;20010;-72
2022/09/28 08:56:42;;;;;;;;;;;;;;;16.26;55.50;93588.09;5071998;28;20181;-74
2022/09/28 08:59:13;;;;;;;;;;;;;;;16.44;55.80;93591.63;5072370;28;20099;-73
2022/09/28 09:01:43;;;;;;;;;;;;;;;15.88;57.04;93590.22;5068227;28;20497;-73
2022/09/28 09:04:08;;;;;;;;;;;;;;;15.30;59.21;93597.06;5067882;28;20013;-73
2022/09/28 09:06:33;;;;;;;;;;;;;;;15.36;58.93;93605.53;5072584;28;20005;-73
2022/09/28 09:09:14;;;;;;;;;;;;;;;13.72;64.22;93633.88;5070395;28;20477;-73
2022/09/28 09:11:59;;;;;;;;;;;;;;;11.87;72.92;93673.91;5072188;28;20009;-72
2022/09/28 09:14:46;;;;;;;;;;;;;;;10.89;76.61;93681.81;5071247;28;20009;-73
2022/09/28 09:17:11;;;;;;;;;;;;;;;10.38;78.04;93671.72;5071758;28;20051;-73
2022/09/28 09:19:40;;;;;;;;;;;;;;;9.82;79.51;93682.25;5071029;28;20071;-73
2022/09/28 09:22:13;;;;;;;;;;;;;;;9.67;79.62;93682.16;5071223;28;20111;-73
2022/09/28 09:24:49;;;;;;;;;;;;;;;9.96;81.14;93673.16;5072060;28;20067;-73
2022/09/28 09:27:35;;;;;;;;;;;;;;;11.03;77.48;93686.72;5071609;28;20596;-73
2022/09/28 09:30:10;;;;;;;;;;;;;;;10.23;78.20;93685.69;5070755;28;20408;-73
2022/09/28 09:32:42;;;;;;;;;;;;;;;10.24;78.76;93676.66;5069795;28;20009;-72
2022/09/28 09:35:30;;;;;;;;;;;;;;;11.03;77.03;93684.06;5069499;28;20079;-73
2022/09/28 09:38:18;;;;;;;;;;;;;;;10.64;76.82;93687.25;5065181;28;20012;-74
2022/09/28 09:40:52;;;;;;;;;;;;;;;11.50;75.62;93697.41;5070595;28;20013;-73
2022/09/28 09:43:36;;;;;;;;;;;;;;;11.55;75.27;93693.72;5072087;28;20373;-74
2022/09/28 09:46:07;;;;;;;;;;;;;;;10.97;76.81;93696.09;5071229;28;20013;-71
2022/09/28 09:48:44;;;;;;;;;;;;;;;11.30;76.49;93701.84;5068701;28;20039;-69
2022/09/28 09:51:21;;;;;;;;;;;;;;;11.19;77.42;93709.56;5070258;28;20043;-71
2022/09/28 09:53:58;;;;;;;;;;;;;;;11.00;76.66;93700.72;5070347;28;20014;-73
2022/09/28 09:56:27;;;;;;;;;;;;;;;11.59;75.97;93713.22;5071151;28;20013;-73
2022/09/28 09:58:54;;;;;;;;;;;;;;;11.80;76.06;93705.72;5071540;28;20048;-74
2022/09/28 10:01:25;;;;;;;;;;;;;;;11.36;76.56;93707.69;5071608;28;20005;-73
2022/09/28 10:03:51;;;;;;;;;;;;;;;10.93;77.84;93707.41;5069048;28;20020;-75
2022/09/28 10:06:19;;;;;;;;;;;;;;;10.88;79.03;93710.31;5071080;28;20017;-73
2022/09/28 10:08:47;;;;;;;;;;;;;;;11.52;76.03;93711.16;5071078;28;20009;-73
2022/09/28 10:11:18;;;;;;;;;;;;;;;10.75;76.89;93724.78;5071849;22;20393;-65
2022/09/28 10:13:47;;;;;;;;;;;;;;;11.41;76.17;93710.91;5050564;28;20014;-66
2022/09/28 10:16:12;;;;;;;;;;;;;;;11.41;74.52;93716.22;5051391;28;20048;-65
2022/09/28 10:18:38;;;;;;;;;;;;;;;11.92;74.21;93718.94;5050010;28;20056;-66
2022/09/28 10:21:04;;;;;;;;;;;;;;;11.58;73.93;93730.31;5033441;28;20014;-65
2022/09/28 10:23:32;;;;;;;;;;;;;;;11.70;75.19;93724.88;5050920;28;20489;-67
2022/09/28 10:26:27;;;;;;;;;;;;;;;12.00;75.31;93727.88;5032558;28;20418;-67
2022/09/28 10:28:58;;;;;;;;;;;;;;;11.65;73.59;93733.13;5040956;28;20036;-67
2022/09/28 10:31:37;;;;;;;;;;;;;;;11.35;76.24;93728.22;5051031;28;20010;-67
2022/09/28 10:34:03;;;;;;;;;;;;;;;12.25;73.81;93725.78;5050099;28;20005;-67
2022/09/28 10:36:37;;;;;;;;;;;;;;;12.67;73.15;93736.53;5050547;28;20381;-67
2022/09/28 10:39:03;;;;;;;;;;;;;;;13.44;73.02;93737.63;5050648;28;20006;-68
2022/09/28 10:41:30;;;;;;;;;;;;;;;13.32;71.61;93735.91;5050730;28;20343;-68
2022/09/28 10:44:05;;;;;;;;;;;;;;;13.12;70.94;93615.00;5049827;28;20064;-68
2022/09/28 10:46:34;;;;;;;;;;;;;;;14.46;70.08;93742.22;5049801;28;20013;-68
2022/09/28 10:49:08;;;;;;;;;;;;;;;13.56;67.64;93747.34;5049295;28;20049;-67
2022/09/28 10:51:41;;;;;;;;;;;;;;;13.38;69.38;93742.47;5032947;28;20016;-68
2022/09/28 10:54:12;;;;;;;;;;;;;;;12.97;69.75;93742.09;5032566;28;20006;-68
2022/09/28 10:56:38;;;;;;;;;;;;;;;13.58;70.81;93739.75;5031879;28;20020;-67
2022/09/28 10:59:21;;;;;;;;;;;;;;;14.15;70.76;93730.72;5050343;28;20377;-67
2022/09/28 11:01:51;;;;;;;;;;;;;;;14.76;71.77;93721.63;5032785;28;20096;-68
2022/09/28 11:04:19;;;;;;;;;;;;;;;15.39;71.72;93727.25;5049831;28;20112;-68
2022/09/28 11:06:45;;;;;;;;;;;;;;;15.72;71.09;93723.78;5050315;28;20067;-67
2022/09/28 11:09:24;;;;;;;;;;;;;;;15.11;66.83;93723.16;5031189;28;20017;-67
2022/09/28 11:11:50;;;;;;;;;;;;;;;13.93;66.11;93731.56;5049426;28;20013;-66
2022/09/28 11:14:30;;;;;;;;;;;;;;;13.56;69.73;93737.44;5030181;28;20059;-67
2022/09/28 11:17:25;;;;;;;;;;;;;;;12.64;68.57;93561.22;5032383;28;20359;-65
2022/09/28 11:19:52;;;;;;;;;;;;;;;14.77;71.07;93735.78;5021766;28;20014;-66
2022/09/28 11:22:20;;;;;;;;;;;;;;;14.84;67.87;93738.53;5050131;28;20456;-67
2022/09/28 11:24:46;;;;;;;;;;;;;;;12.79;68.63;93740.97;5031347;28;20025;-67
2022/09/28 11:27:22;;;;;;;;;;;;;;;12.69;70.56;93749.53;5032248;28;20494;-67
2022/09/28 11:29:54;;;;;;;;;;;;;;;12.15;71.51;93763.63;5049675;28;20008;-67
2022/09/28 11:32:20;;;;;;;;;;;;;;;12.43;71.44;93764.25;5032381;28;20465;-68
2022/09/28 11:34:47;;;;;;;;;;;;;;;13.49;72.12;93751.44;5031176;28;20513;-67
2022/09/28 11:37:28;;;;;;;;;;;;;;;13.69;70.82;93746.06;5032207;28;20355;-66
2022/09/28 11:40:03;;;;;;;;;;;;;;;14.38;70.45;93737.91;5031742;28;20087;-68
2022/09/28 11:42:28;;;;;;;;;;;;;;;14.78;68.82;93732.72;5031096;28;20009;-68
2022/09/28 11:45:22;;;;;;;;;;;;;;;15.15;67.81;93732.00;5048870;28;20036;-68
2022/09/28 11:48:00;;;;;;;;;;;;;;;15.13;66.03;93736.94;5049640;28;20010;-66
2022/09/28 11:50:42;;;;;;;;;;;;;;;15.58;68.08;93733.19;5030096;28;20020;-67
2022/09/28 11:53:11;;;;;;;;;;;;;;;14.72;67.16;93752.16;5049773;28;20016;-69
2022/09/28 11:55:50;;;;;;;;;;;;;;;14.77;68.44;93746.47;5031021;28;20039;-67
2022/09/28 11:58:28;;;;;;;;;;;;;;;13.64;67.51;93757.81;5031619;28;20064;-65
2022/09/28 12:00:56;;;;;;;;;;;;;;;13.10;70.24;93758.72;5050008;28;20048;-65
2022/09/28 12:03:23;;;;;;;;;;;;;;;12.84;71.23;93763.94;5030201;28;20010;-65
2022/09/28 12:06:03;;;;;;;;;;;;;;;13.25;71.61;93765.13;5049720;28;20017;-65
2022/09/28 12:08:31;;;;;;;;;;;;;;;13.43;71.99;93747.53;5031265;28;20071;-66
2022/09/28 12:11:19;;;;;;;;;;;;;;;14.27;72.15;93743.88;5031682;28;20022;-66
2022/09/28 12:13:46;;;;;;;;;;;;;;;14.33;70.76;93749.72;5031145;28;20381;-65
2022/09/28 12:16:32;;;;;;;;;;;;;;;13.71;70.90;93752.56;5049430;28;20451;-66
2022/09/28 12:19:00;;;;;;;;;;;;;;;13.89;70.82;93744.09;5026135;28;20600;-66
2022/09/28 12:21:41;;;;;;;;;;;;;;;14.15;71.33;93749.44;5049716;28;20005;-65
2022/09/28 12:24:15;;;;;;;;;;;;;;;13.72;70.31;93750.69;5031669;28;20867;-65
2022/09/28 12:26:58;;;;;;;;;;;;;;;13.73;69.63;93754.91;5046900;28;20067;-65
2022/09/28 12:29:37;;;;;;;;;;;;;;;12.75;73.12;93753.47;5030229;28;20100;-66
2022/09/28 12:32:21;;;;;;;;;;;;;;;12.64;73.20;93752.47;5049505;28;20028;-65
2022/09/28 12:34:47;;;;;;;;;;;;;;;12.38;73.78;93755.75;5030326;28;20014;-65
2022/09/28 12:37:32;;;;;;;;;;;;;;;12.60;73.77;93763.09;5049772;28;20075;-65
2022/09/28 12:40:16;;;;;;;;;;;;;;;12.21;75.41;93772.91;5026550;28;20009;-65
2022/09/28 12:43:00;;;;;;;;;;;;;;;12.82;75.36;93756.28;5031210;28;20010;-66
2022/09/28 12:45:28;;;;;;;;;;;;;;;13.21;73.07;93749.06;5024331;28;20560;-66
2022/09/28 12:48:03;;;;;;;;;;;;;;;13.87;73.22;93746.31;5031501;28;20009;-66
2022/09/28 12:50:31;;;;;;;;;;;;;;;12.45;74.42;93756.69;5029947;28;20084;-67
2022/09/28 12:52:56;;;;;;;;;;;;;;;12.25;75.04;93749.78;5049033;28;20009;-66
2022/09/28 12:55:34;;;;;;;;;;;;;;;11.81;74.91;93752.53;5052020;28;20018;-66
2022/09/28 12:58:21;;;;;;;;;;;;;;;12.51;74.95;93761.75;5034719;28;20009;-65
2022/09/28 13:01:16;;;;;;;;;;;;;;;12.57;76.38;93763.00;5034699;28;20010;-66
2022/09/28 13:03:50;;;;;;;;;;;;;;;12.69;74.87;93755.66;5014621;28;20014;-67